Time;durP1;ratioP1;P1;durP2;ratioP2;P2;SDS_P1;SDS_P2;PMS_P1;PMS_P2;Temp;Humidity;BMP_temperature;BMP_pressure;BME280_temperature;BME280_humidity;BME280_pressure;Samples;Min_cycle;Max_cycle;Signal;HPM_P1;HPM_P2
2022/04/07 00:00:09;;;;;;;;;;;12.00;99.90;12.40;98838.00;;;;350313;27;82536;-89
2022/04/07 00:00:21;;;;;;;;;;;12.00;99.90;12.30;98835.00;;;;346524;28;96497;-89
2022/04/07 00:00:33;;;;;;;;;;;12.00;99.90;12.40;98828.00;;;;346205;28;82477;-88
2022/04/07 00:00:45;;;;;;;;;;;11.90;99.90;12.40;98835.00;;;;343623;28;92997;-88
2022/04/07 00:00:57;;;;;;;;;;;12.00;99.90;12.30;98839.00;;;;345615;28;82388;-89
2022/04/07 00:01:09;;;;;;;;;;;11.90;99.90;12.30;98836.00;;;;346474;28;96871;-89
2022/04/07 00:01:21;;;;;;;;;;;11.90;99.90;12.30;98829.00;;;;344591;28;83740;-88
2022/04/07 00:01:33;;;;;;;;;;;11.90;99.90;12.30;98832.00;;;;345255;28;95420;-88
2022/04/07 00:01:45;;;;;;;;;;;11.90;99.90;12.30;98833.00;;;;348783;27;83401;-89
2022/04/07 00:01:57;;;;;;;;;;;11.90;99.90;12.20;98832.00;;;;346780;28;96009;-89
2022/04/07 00:02:09;;;;;;;;;;;11.90;99.90;12.20;98829.00;;;;346166;28;83403;-88
2022/04/07 00:02:21;;;;;;;;;;;11.90;99.90;12.30;98829.00;;;;345144;28;96722;-89
2022/04/07 00:02:33;;;;;;;;;;;11.90;99.90;12.40;98830.00;;;;346144;28;82422;-88
2022/04/07 00:02:45;;;;;;;;;;;11.90;99.90;12.30;98825.00;;;;343553;28;94455;-89
2022/04/07 00:02:56;;;;;;;;;;;11.90;99.90;12.30;98828.00;;;;345911;28;83512;-89
2022/04/07 00:03:08;;;;;;;;;;;11.90;99.90;12.30;98826.00;;;;346704;28;94643;-88
2022/04/07 00:03:20;;;;;;;;;;;11.90;99.90;12.40;98824.00;;;;347555;28;82503;-88
2022/04/07 00:03:32;;;;;;;;;;;11.90;99.90;12.30;98825.00;;;;346692;28;96252;-88
2022/04/07 00:03:44;;;;;;;;;;;11.90;99.90;12.30;98827.00;;;;347024;28;82307;-89
2022/04/07 00:03:56;;;;;;;;;;;11.90;99.90;12.30;98827.00;;;;347152;27;95350;-88
2022/04/07 00:04:07;;;;;;;;;;;11.90;99.90;12.30;98819.00;;;;346044;28;83438;-88
2022/04/07 00:04:21;;;;;;;;;;;11.90;99.90;12.30;98823.00;;;;344529;28;93034;-88
2022/04/07 00:04:33;;;;;;;;;;;11.90;99.90;12.30;98824.00;;;;347517;28;83215;-88
2022/04/07 00:04:45;;;;;;;;;;;11.90;99.90;12.30;98816.00;;;;346743;28;96436;-89
2022/04/07 00:04:56;;;;;;;;;;;11.90;99.90;12.20;98824.00;;;;347330;28;83342;-88
2022/04/07 00:05:08;;;;;;;;;;;11.90;99.90;12.20;98824.00;;;;346704;28;96885;-89
2022/04/07 00:05:20;;;;;;;;;;;11.90;99.90;12.40;98822.00;;;;344588;28;84290;-88
2022/04/07 00:05:32;;;;;;;;;;;11.90;99.90;12.40;98827.00;;;;345230;28;97318;-88
2022/04/07 00:05:43;;;;;;;;;;;11.90;99.90;12.50;98814.00;;;;347314;28;83465;-89
2022/04/07 00:05:55;;;;;;;;;;;11.90;99.90;12.40;98816.00;;;;345314;28;96059;-88
2022/04/07 00:06:09;;;;;;;;;;;11.90;99.90;12.40;98820.00;;;;344677;28;83209;-88
2022/04/07 00:06:21;;;;;;;;;;;11.90;99.90;12.40;98821.00;;;;343850;28;96598;-88
2022/04/07 00:06:33;;;;;;;;;;;11.90;99.90;12.40;98827.00;;;;345813;28;82562;-89
2022/04/07 00:06:45;;;;;;;;;;;11.90;99.90;12.40;98823.00;;;;345228;28;96505;-88
2022/04/07 00:06:57;;;;;;;;;;;11.90;99.90;12.30;98819.00;;;;345828;28;83535;-88
2022/04/07 00:07:09;;;;;;;;;;;11.90;99.90;12.30;98826.00;;;;345271;28;96937;-89
2022/04/07 00:07:20;;;;;;;;;;;11.90;99.90;12.30;98821.00;;;;348815;27;83222;-89
2022/04/07 00:07:32;;;;;;;;;;;11.90;99.90;12.20;98831.00;;;;345279;28;96479;-88
2022/04/07 00:07:44;;;;;;;;;;;11.90;99.90;12.30;98828.00;;;;344684;28;83401;-89
2022/04/07 00:07:55;;;;;;;;;;;11.90;99.90;12.20;98826.00;;;;345323;28;94677;-88
2022/04/07 00:08:07;;;;;;;;;;;11.90;99.90;12.20;98828.00;;;;346053;28;83308;-88
2022/04/07 00:08:25;;;;;;;;;;;11.90;99.90;12.40;98832.00;;;;347931;27;95565;-88
2022/04/07 00:08:37;;;;;;;;;;;11.90;99.90;12.40;98830.00;;;;345860;28;83438;-89
2022/04/07 00:08:49;;;;;;;;;;;11.90;99.90;12.30;98828.00;;;;346639;28;96657;-88
2022/04/07 00:09:03;;;;;;;;;;;11.90;99.90;12.20;98833.00;;;;348719;27;83471;-89
2022/04/07 00:09:15;;;;;;;;;;;11.90;99.90;12.20;98826.00;;;;346691;28;96438;-89
2022/04/07 00:09:27;;;;;;;;;;;11.90;99.90;12.30;98834.00;;;;347438;28;83445;-89
2022/04/07 00:09:39;;;;;;;;;;;11.90;99.90;12.30;98839.00;;;;346671;28;95570;-88
2022/04/07 00:09:51;;;;;;;;;;;11.90;99.90;12.20;98837.00;;;;345397;28;82512;-88
2022/04/07 00:10:03;;;;;;;;;;;11.90;99.90;12.00;98847.00;;;;345253;28;94281;-89
2022/04/07 00:10:15;;;;;;;;;;;11.90;99.90;12.00;98832.00;;;;345710;28;83372;-88
2022/04/07 00:10:27;;;;;;;;;;;11.90;99.90;11.90;98846.00;;;;345276;28;96375;-88
2022/04/07 00:10:38;;;;;;;;;;;11.80;99.90;11.90;98834.00;;;;346101;28;83389;-88
2022/04/07 00:10:50;;;;;;;;;;;11.80;99.90;12.00;98831.00;;;;345755;28;97832;-89
2022/04/07 00:11:02;;;;;;;;;;;11.80;99.90;12.10;98843.00;;;;345826;28;82368;-88
2022/04/07 00:11:14;;;;;;;;;;;11.80;99.90;12.10;98841.00;;;;345413;28;94445;-89
2022/04/07 00:11:25;;;;;;;;;;;11.80;99.90;12.10;98839.00;;;;345997;28;83385;-89
2022/04/07 00:11:37;;;;;;;;;;;11.80;99.90;12.10;98839.00;;;;346669;28;93274;-89
2022/04/07 00:11:49;;;;;;;;;;;11.80;99.90;12.00;98845.00;;;;347422;28;83328;-88
2022/04/07 00:12:01;;;;;;;;;;;11.80;99.90;12.00;98844.00;;;;346612;28;95543;-88
2022/04/07 00:12:12;;;;;;;;;;;11.80;99.90;12.00;98838.00;;;;348914;27;82516;-88
2022/04/07 00:12:24;;;;;;;;;;;11.80;99.90;12.20;98839.00;;;;349391;27;96355;-89
2022/04/07 00:12:37;;;;;;;;;;;11.80;99.90;12.30;98845.00;;;;346084;28;83429;-88
2022/04/07 00:12:49;;;;;;;;;;;11.80;99.90;12.20;98839.00;;;;345782;28;94276;-88
2022/04/07 00:13:01;;;;;;;;;;;11.80;99.90;12.30;98842.00;;;;348689;27;83672;-88
2022/04/07 00:13:13;;;;;;;;;;;11.80;99.90;12.30;98841.00;;;;348019;27;97088;-88
2022/04/07 00:13:25;;;;;;;;;;;11.80;99.90;12.30;98833.00;;;;348646;27;82487;-89
2022/04/07 00:13:37;;;;;;;;;;;11.80;99.90;12.20;98840.00;;;;345190;28;96612;-89
2022/04/07 00:13:53;;;;;;;;;;;11.80;99.90;12.20;98833.00;;;;346006;28;83527;-88
2022/04/07 00:14:05;;;;;;;;;;;11.80;99.90;12.10;98839.00;;;;345330;28;94591;-88
2022/04/07 00:14:17;;;;;;;;;;;11.80;99.90;12.00;98841.00;;;;345977;28;83542;-89
2022/04/07 00:14:28;;;;;;;;;;;11.80;99.90;11.90;98841.00;;;;345265;28;94072;-89
2022/04/07 00:14:40;;;;;;;;;;;11.80;99.90;12.00;98842.00;;;;344637;28;83492;-88
2022/04/07 00:14:52;;;;;;;;;;;11.80;99.90;12.00;98844.00;;;;346630;28;97031;-89
2022/04/07 00:15:04;;;;;;;;;;;11.70;99.90;12.00;98832.00;;;;346024;28;83517;-89
2022/04/07 00:15:16;;;;;;;;;;;11.70;99.90;12.00;98848.00;;;;346366;28;95586;-89
2022/04/07 00:15:28;;;;;;;;;;;11.70;99.90;12.00;98833.00;;;;347228;28;83280;-89
2022/04/07 00:15:40;;;;;;;;;;;11.70;99.90;12.00;98836.00;;;;345240;28;96541;-88
2022/04/07 00:15:53;;;;;;;;;;;11.70;99.90;12.00;98837.00;;;;345570;28;83615;-89
2022/04/07 00:16:06;;;;;;;;;;;11.70;99.90;11.90;98840.00;;;;345116;28;96693;-88
2022/04/07 00:16:18;;;;;;;;;;;11.70;99.90;12.00;98832.00;;;;347325;28;83706;-88
2022/04/07 00:16:30;;;;;;;;;;;11.70;99.90;12.00;98833.00;;;;346387;28;96368;-88
2022/04/07 00:16:42;;;;;;;;;;;11.70;99.90;12.00;98841.00;;;;347428;28;82569;-88
2022/04/07 00:16:54;;;;;;;;;;;11.70;99.90;12.00;98837.00;;;;346466;27;96533;-89
2022/04/07 00:17:06;;;;;;;;;;;11.70;99.90;11.90;98844.00;;;;346016;28;82651;-88
2022/04/07 00:17:18;;;;;;;;;;;11.70;99.90;12.00;98840.00;;;;346676;28;96393;-89
2022/04/07 00:17:30;;;;;;;;;;;11.70;99.90;11.90;98845.00;;;;348750;27;83444;-89
2022/04/07 00:17:41;;;;;;;;;;;11.70;99.90;11.90;98835.00;;;;346706;28;93771;-89
2022/04/07 00:17:53;;;;;;;;;;;11.60;99.90;11.90;98839.00;;;;346075;28;83432;-88
2022/04/07 00:18:06;;;;;;;;;;;11.70;99.90;12.00;98838.00;;;;345261;28;95563;-88
2022/04/07 00:18:18;;;;;;;;;;;11.60;99.90;12.10;98841.00;;;;344634;28;82574;-88
2022/04/07 00:18:30;;;;;;;;;;;11.60;99.90;12.10;98825.00;;;;345266;28;95620;-89
2022/04/07 00:18:41;;;;;;;;;;;11.70;99.90;12.00;98839.00;;;;347470;28;83291;-89
2022/04/07 00:18:53;;;;;;;;;;;11.70;99.90;12.00;98834.00;;;;347700;27;96969;-88
2022/04/07 00:19:05;;;;;;;;;;;11.60;99.90;12.10;98827.00;;;;347244;28;83496;-88
2022/04/07 00:19:17;;;;;;;;;;;11.60;99.90;12.10;98835.00;;;;345245;28;96468;-89
2022/04/07 00:19:29;;;;;;;;;;;11.60;99.90;12.10;98837.00;;;;345978;28;83500;-89
2022/04/07 00:19:40;;;;;;;;;;;11.60;99.90;12.00;98828.00;;;;346787;27;92729;-89
2022/04/07 00:19:52;;;;;;;;;;;11.60;99.90;11.90;98834.00;;;;344277;28;83427;-88
2022/04/07 00:20:04;;;;;;;;;;;11.60;99.90;11.90;98832.00;;;;343886;28;94399;-88
2022/04/07 00:20:16;;;;;;;;;;;11.70;99.90;12.10;98832.00;;;;344640;28;83542;-88
2022/04/07 00:20:29;;;;;;;;;;;11.70;99.90;12.00;98828.00;;;;343958;28;96330;-88
2022/04/07 00:20:43;;;;;;;;;;;11.60;99.90;11.90;98832.00;;;;346167;28;83353;-89
2022/04/07 00:20:54;;;;;;;;;;;11.70;99.90;11.90;98835.00;;;;345282;28;95517;-88
2022/04/07 00:21:11;;;;;;;;;;;11.60;99.90;11.90;98834.00;;;;347460;28;83487;-88
2022/04/07 00:21:35;;;;;;;;;;;11.60;99.90;11.80;98835.00;;;;345243;28;95901;-89
2022/04/07 00:21:47;;;;;;;;;;;11.70;99.90;11.80;98831.00;;;;345743;28;83572;-89
2022/04/07 00:21:59;;;;;;;;;;;11.60;99.90;11.70;98827.00;;;;343833;28;95669;-88
2022/04/07 00:22:11;;;;;;;;;;;11.60;99.90;11.80;98841.00;;;;345751;28;83543;-88
2022/04/07 00:22:23;;;;;;;;;;;11.60;99.90;11.80;98838.00;;;;347915;27;98049;-89
2022/04/07 00:22:35;;;;;;;;;;;11.60;99.90;11.70;98826.00;;;;347529;28;82437;-88
2022/04/07 00:22:48;;;;;;;;;;;11.60;99.90;11.70;98826.00;;;;346540;28;97296;-88
2022/04/07 00:23:00;;;;;;;;;;;11.60;99.90;11.70;98828.00;;;;347356;28;83257;-87
2022/04/07 00:23:12;;;;;;;;;;;11.60;99.90;11.70;98841.00;;;;343921;28;96058;-88
2022/04/07 00:23:23;;;;;;;;;;;11.60;99.90;11.70;98826.00;;;;347488;28;82553;-88
2022/04/07 00:23:35;;;;;;;;;;;11.60;99.90;11.70;98830.00;;;;345142;28;96381;-88
2022/04/07 00:23:47;;;;;;;;;;;11.60;99.90;11.80;98832.00;;;;348993;27;83286;-88
2022/04/07 00:23:59;;;;;;;;;;;11.60;99.90;11.80;98835.00;;;;348009;27;96479;-88
2022/04/07 00:24:10;;;;;;;;;;;11.50;99.90;11.90;98833.00;;;;345995;28;83442;-88
2022/04/07 00:24:22;;;;;;;;;;;11.50;99.90;11.90;98831.00;;;;346629;28;95909;-88
2022/04/07 00:24:34;;;;;;;;;;;11.50;99.90;11.90;98824.00;;;;348823;27;83363;-89
2022/04/07 00:24:46;;;;;;;;;;;11.60;99.90;11.80;98834.00;;;;344381;28;96316;-88
2022/04/07 00:24:58;;;;;;;;;;;11.50;99.90;11.80;98830.00;;;;347084;27;83317;-88
2022/04/07 00:25:10;;;;;;;;;;;11.50;99.90;11.80;98825.00;;;;343656;28;96315;-88
2022/04/07 00:25:21;;;;;;;;;;;11.50;99.90;11.90;98832.00;;;;344523;28;83541;-88
2022/04/07 00:25:33;;;;;;;;;;;11.60;99.90;11.90;98832.00;;;;344973;28;94790;-89
2022/04/07 00:25:45;;;;;;;;;;;11.50;99.90;11.90;98830.00;;;;345920;28;83251;-88
2022/04/07 00:25:57;;;;;;;;;;;11.60;99.90;11.90;98827.00;;;;343936;28;92984;-88
2022/04/07 00:26:08;;;;;;;;;;;11.60;99.90;11.90;98828.00;;;;345959;28;83395;-89
2022/04/07 00:26:20;;;;;;;;;;;11.50;99.90;11.90;98827.00;;;;345218;28;95832;-88
2022/04/07 00:26:32;;;;;;;;;;;11.60;99.90;11.90;98832.00;;;;348767;27;83452;-88
2022/04/07 00:26:44;;;;;;;;;;;11.50;99.90;11.80;98829.00;;;;343676;28;96852;-88
2022/04/07 00:26:56;;;;;;;;;;;11.50;99.90;11.80;98824.00;;;;347326;28;83169;-88
2022/04/07 00:27:07;;;;;;;;;;;11.60;99.90;11.80;98831.00;;;;346638;28;97935;-88
2022/04/07 00:27:19;;;;;;;;;;;11.50;99.90;11.80;98830.00;;;;347453;28;82648;-88
2022/04/07 00:27:31;;;;;;;;;;;11.50;99.90;11.80;98834.00;;;;347988;27;93032;-88
2022/04/07 00:27:43;;;;;;;;;;;11.60;99.90;11.90;98826.00;;;;347090;28;82460;-88
2022/04/07 00:27:55;;;;;;;;;;;11.50;99.90;11.90;98825.00;;;;346408;28;96533;-89
2022/04/07 00:28:06;;;;;;;;;;;11.60;99.90;11.90;98825.00;;;;347433;28;83475;-88
2022/04/07 00:28:18;;;;;;;;;;;11.50;99.90;12.00;98827.00;;;;345154;28;95687;-88
2022/04/07 00:28:30;;;;;;;;;;;11.50;99.90;12.00;98833.00;;;;346005;28;83414;-88
2022/04/07 00:28:42;;;;;;;;;;;11.50;99.90;11.90;98834.00;;;;345302;28;95743;-89
2022/04/07 00:28:53;;;;;;;;;;;11.60;99.90;11.90;98825.00;;;;347111;28;83478;-89
2022/04/07 00:29:05;;;;;;;;;;;11.50;99.90;11.90;98831.00;;;;346629;28;95635;-88
2022/04/07 00:29:17;;;;;;;;;;;11.50;99.90;11.90;98826.00;;;;347489;28;82334;-89
2022/04/07 00:29:29;;;;;;;;;;;11.60;99.90;11.90;98829.00;;;;346589;28;96392;-88
2022/04/07 00:29:41;;;;;;;;;;;11.50;99.90;11.90;98829.00;;;;346015;28;83403;-88
2022/04/07 00:29:52;;;;;;;;;;;11.50;99.90;11.90;98828.00;;;;346659;28;96923;-89
2022/04/07 00:30:05;;;;;;;;;;;11.50;99.90;11.80;98831.00;;;;347462;28;83475;-88
2022/04/07 00:30:20;;;;;;;;;;;11.50;99.90;11.70;98828.00;;;;345339;28;94669;-88
2022/04/07 00:30:31;;;;;;;;;;;11.50;99.90;11.70;98826.00;;;;347346;28;83393;-88
2022/04/07 00:30:44;;;;;;;;;;;11.50;99.90;11.70;98824.00;;;;346358;28;95397;-89
2022/04/07 00:30:57;;;;;;;;;;;11.50;99.90;11.70;98830.00;;;;345445;28;83638;-89
2022/04/07 00:31:11;;;;;;;;;;;11.50;99.90;11.70;98825.00;;;;346664;28;96744;-89
2022/04/07 00:31:23;;;;;;;;;;;11.50;99.90;11.60;98832.00;;;;344701;28;83473;-89
2022/04/07 00:31:44;;;;;;;;;;;11.50;99.90;11.60;98833.00;;;;345041;28;96684;-89
2022/04/07 00:31:57;;;;;;;;;;;11.50;99.90;11.60;98827.00;;;;347533;28;83284;-89
2022/04/07 00:32:09;;;;;;;;;;;11.50;99.90;11.60;98831.00;;;;345280;28;96279;-89
2022/04/07 00:32:21;;;;;;;;;;;11.50;99.90;11.60;98828.00;;;;347343;28;83487;-88
2022/04/07 00:32:33;;;;;;;;;;;11.50;99.90;11.60;98827.00;;;;346641;28;95770;-88
2022/04/07 00:32:44;;;;;;;;;;;11.50;99.90;11.70;98829.00;;;;344408;28;83606;-89
2022/04/07 00:32:56;;;;;;;;;;;11.50;99.90;11.70;98825.00;;;;345066;28;95274;-89
2022/04/07 00:33:08;;;;;;;;;;;11.50;99.90;11.70;98825.00;;;;345997;28;83393;-89
2022/04/07 00:33:20;;;;;;;;;;;11.50;99.90;11.80;98830.00;;;;345155;28;96583;-89
2022/04/07 00:33:32;;;;;;;;;;;11.50;99.90;11.70;98832.00;;;;345957;28;83406;-88
2022/04/07 00:33:43;;;;;;;;;;;11.50;99.90;11.70;98826.00;;;;347961;27;93276;-88
2022/04/07 00:33:55;;;;;;;;;;;11.50;99.90;11.80;98826.00;;;;345637;28;83382;-88
2022/04/07 00:34:07;;;;;;;;;;;11.50;99.90;11.80;98821.00;;;;345327;28;95367;-88
2022/04/07 00:34:19;;;;;;;;;;;11.50;99.90;11.70;98831.00;;;;348159;27;83863;-89
2022/04/07 00:34:30;;;;;;;;;;;11.50;99.90;11.60;98827.00;;;;346671;28;95750;-88
2022/04/07 00:34:46;;;;;;;;;;;11.40;99.90;11.60;98815.00;;;;347420;28;83428;-89
2022/04/07 00:34:57;;;;;;;;;;;11.50;99.90;11.60;98827.00;;;;346524;28;97099;-88
2022/04/07 00:35:09;;;;;;;;;;;11.50;99.90;11.60;98818.00;;;;346061;28;82481;-88
2022/04/07 00:35:24;;;;;;;;;;;11.40;99.90;11.60;98824.00;;;;345247;28;95123;-88
2022/04/07 00:35:36;;;;;;;;;;;11.50;99.90;11.60;98827.00;;;;346032;28;83649;-88
2022/04/07 00:35:48;;;;;;;;;;;11.40;99.90;11.60;98825.00;;;;345149;28;95437;-89
2022/04/07 00:36:02;;;;;;;;;;;11.40;99.90;11.70;98825.00;;;;345769;28;84020;-89
2022/04/07 00:36:14;;;;;;;;;;;11.40;99.90;11.70;98828.00;;;;345252;28;96399;-88
2022/04/07 00:36:26;;;;;;;;;;;11.40;99.90;11.70;98832.00;;;;348867;27;82597;-88
2022/04/07 00:36:39;;;;;;;;;;;11.40;99.90;11.70;98827.00;;;;346758;28;92263;-88
2022/04/07 00:36:50;;;;;;;;;;;11.40;99.90;11.70;98825.00;;;;348587;27;83591;-88
2022/04/07 00:37:02;;;;;;;;;;;11.40;99.90;11.70;98823.00;;;;345188;28;96694;-89
2022/04/07 00:37:16;;;;;;;;;;;11.40;99.90;11.70;98830.00;;;;347274;28;83423;-89
2022/04/07 00:37:27;;;;;;;;;;;11.40;99.90;11.80;98818.00;;;;345213;28;96852;-88
2022/04/07 00:37:39;;;;;;;;;;;11.40;99.90;11.90;98825.00;;;;345965;28;82381;-88
2022/04/07 00:37:51;;;;;;;;;;;11.40;99.90;12.00;98826.00;;;;346608;28;93814;-89
2022/04/07 00:38:03;;;;;;;;;;;11.40;99.90;12.00;98822.00;;;;346154;28;82409;-88
2022/04/07 00:38:14;;;;;;;;;;;11.50;99.90;11.90;98821.00;;;;346602;28;96605;-89
2022/04/07 00:38:26;;;;;;;;;;;11.50;99.90;11.90;98823.00;;;;347328;28;82468;-89
2022/04/07 00:38:38;;;;;;;;;;;11.50;99.90;11.90;98818.00;;;;348080;27;95603;-88
2022/04/07 00:38:50;;;;;;;;;;;11.40;99.90;11.90;98818.00;;;;345957;28;83450;-89
2022/04/07 00:39:02;;;;;;;;;;;11.50;99.90;12.00;98821.00;;;;346540;28;96337;-89
2022/04/07 00:39:14;;;;;;;;;;;11.50;99.90;12.00;98821.00;;;;347489;28;83423;-88
2022/04/07 00:39:25;;;;;;;;;;;11.40;99.90;12.10;98826.00;;;;345323;28;93795;-89
2022/04/07 00:39:37;;;;;;;;;;;11.50;99.90;12.20;98822.00;;;;347409;28;83312;-89
2022/04/07 00:39:50;;;;;;;;;;;11.50;99.90;12.20;98821.00;;;;346031;28;94277;-88
2022/04/07 00:40:02;;;;;;;;;;;11.50;99.90;12.10;98823.00;;;;345972;28;86282;-89
2022/04/07 00:40:14;;;;;;;;;;;11.50;99.90;12.20;98815.00;;;;346581;28;96772;-88
2022/04/07 00:40:26;;;;;;;;;;;11.50;99.90;12.10;98820.00;;;;344673;28;83299;-89
2022/04/07 00:40:38;;;;;;;;;;;11.60;99.90;12.10;98822.00;;;;346636;28;96531;-89
2022/04/07 00:40:50;;;;;;;;;;;11.60;99.90;12.00;98820.00;;;;348798;27;85522;-89
2022/04/07 00:41:02;;;;;;;;;;;11.60;99.90;12.00;98822.00;;;;343797;28;96286;-88
2022/04/07 00:41:13;;;;;;;;;;;11.60;99.90;12.00;98812.00;;;;347480;28;82427;-88
2022/04/07 00:41:26;;;;;;;;;;;11.60;99.90;12.00;98822.00;;;;345322;28;95454;-89
2022/04/07 00:41:39;;;;;;;;;;;11.60;99.90;12.00;98824.00;;;;347245;28;83473;-89
2022/04/07 00:41:51;;;;;;;;;;;11.60;99.90;12.00;98823.00;;;;345347;28;95461;-88
2022/04/07 00:42:03;;;;;;;;;;;11.60;99.90;12.10;98818.00;;;;348745;27;83428;-88
2022/04/07 00:42:14;;;;;;;;;;;11.60;99.90;12.10;98821.00;;;;343829;28;96644;-89
2022/04/07 00:42:26;;;;;;;;;;;11.60;99.90;12.00;98821.00;;;;345971;28;82417;-89
2022/04/07 00:42:47;;;;;;;;;;;11.60;99.90;12.10;98818.00;;;;345276;28;94815;-89
2022/04/07 00:42:59;;;;;;;;;;;11.60;99.90;12.10;98823.00;;;;345815;28;83402;-88
2022/04/07 00:43:36;;;;;;;;;;;11.60;99.90;12.10;98822.00;;;;345374;28;96362;-89
2022/04/07 00:43:51;;;;;;;;;;;11.60;99.90;12.10;98821.00;;;;346016;28;83410;-89
2022/04/07 00:44:03;;;;;;;;;;;11.60;99.90;12.10;98823.00;;;;346607;28;96024;-88
2022/04/07 00:44:14;;;;;;;;;;;11.60;99.90;12.10;98822.00;;;;347418;28;83499;-89
2022/04/07 00:44:28;;;;;;;;;;;11.60;99.90;12.20;98822.00;;;;345344;28;95430;-88
2022/04/07 00:44:39;;;;;;;;;;;11.60;99.90;12.20;98817.00;;;;344655;28;82375;-89
2022/04/07 00:44:51;;;;;;;;;;;11.60;99.90;12.20;98819.00;;;;345186;28;95939;-88
2022/04/07 00:45:04;;;;;;;;;;;11.60;99.90;12.20;98810.00;;;;347517;28;82538;-89
2022/04/07 00:45:17;;;;;;;;;;;11.60;99.90;12.20;98817.00;;;;348130;27;95669;-89
2022/04/07 00:45:28;;;;;;;;;;;11.60;99.90;12.20;98817.00;;;;345989;28;83446;-88
2022/04/07 00:45:40;;;;;;;;;;;11.70;99.90;12.10;98807.00;;;;345111;28;97385;-89
2022/04/07 00:45:52;;;;;;;;;;;11.60;99.90;12.10;98815.00;;;;345593;28;83458;-89
2022/04/07 00:46:04;;;;;;;;;;;11.60;99.90;12.10;98816.00;;;;345070;28;96589;-89
2022/04/07 00:46:16;;;;;;;;;;;11.60;99.90;12.10;98805.00;;;;346371;28;83387;-88
2022/04/07 00:46:27;;;;;;;;;;;11.70;99.90;12.20;98817.00;;;;345196;28;97155;-88
2022/04/07 00:46:39;;;;;;;;;;;11.60;99.90;12.10;98812.00;;;;346015;28;83394;-89
2022/04/07 00:46:51;;;;;;;;;;;11.60;99.90;12.10;98818.00;;;;346050;28;96040;-89
2022/04/07 00:47:03;;;;;;;;;;;11.60;99.90;12.10;98812.00;;;;347381;28;83355;-88
2022/04/07 00:47:15;;;;;;;;;;;11.60;99.90;12.10;98812.00;;;;345264;28;96158;-89
2022/04/07 00:47:27;;;;;;;;;;;11.70;99.90;12.00;98822.00;;;;347471;28;82431;-89
2022/04/07 00:47:39;;;;;;;;;;;11.70;99.90;12.00;98812.00;;;;345114;28;96988;-89
2022/04/07 00:47:51;;;;;;;;;;;11.60;99.90;11.90;98815.00;;;;345749;28;83332;-88
2022/04/07 00:48:03;;;;;;;;;;;11.60;99.90;11.90;98811.00;;;;346425;28;96663;-88
2022/04/07 00:48:15;;;;;;;;;;;11.60;99.90;12.00;98816.00;;;;348568;27;83408;-88
2022/04/07 00:48:27;;;;;;;;;;;11.60;99.90;12.10;98812.00;;;;346656;28;96746;-88
2022/04/07 00:48:38;;;;;;;;;;;11.60;99.90;12.10;98817.00;;;;347381;28;83375;-89
2022/04/07 00:48:50;;;;;;;;;;;11.70;99.90;12.10;98812.00;;;;346256;28;95519;-89
2022/04/07 00:49:02;;;;;;;;;;;11.60;99.90;12.10;98819.00;;;;346565;28;83485;-89
2022/04/07 00:49:14;;;;;;;;;;;11.60;99.90;12.20;98818.00;;;;344931;28;94836;-88
2022/04/07 00:49:26;;;;;;;;;;;11.60;99.90;12.10;98813.00;;;;346075;28;82461;-89
2022/04/07 00:49:38;;;;;;;;;;;11.70;99.90;12.10;98811.00;;;;345200;28;94040;-88
2022/04/07 00:49:50;;;;;;;;;;;11.60;99.90;12.20;98817.00;;;;345976;28;82417;-88
2022/04/07 00:50:01;;;;;;;;;;;11.70;99.90;12.10;98812.00;;;;345181;28;96910;-88
2022/04/07 00:50:14;;;;;;;;;;;11.70;99.90;12.10;98818.00;;;;345988;28;83276;-89
2022/04/07 00:50:26;;;;;;;;;;;11.70;99.90;12.10;98818.00;;;;345201;28;96685;-89
2022/04/07 00:50:37;;;;;;;;;;;11.70;99.90;12.10;98821.00;;;;346088;28;83385;-89
2022/04/07 00:50:49;;;;;;;;;;;11.60;99.90;12.10;98816.00;;;;346706;28;94255;-88
2022/04/07 00:51:02;;;;;;;;;;;11.60;99.90;12.10;98818.00;;;;348617;27;83501;-88
2022/04/07 00:51:13;;;;;;;;;;;11.60;99.90;12.10;98814.00;;;;343778;28;94902;-89
2022/04/07 00:51:25;;;;;;;;;;;11.70;99.90;12.10;98822.00;;;;348816;27;82319;-88
2022/04/07 00:51:40;;;;;;;;;;;11.70;99.90;12.00;98817.00;;;;344758;28;97002;-88
2022/04/07 00:51:53;;;;;;;;;;;11.70;99.90;12.20;98814.00;;;;347279;27;83597;-89
2022/04/07 00:52:06;;;;;;;;;;;11.70;99.90;12.10;98819.00;;;;347588;27;97258;-89
2022/04/07 00:52:18;;;;;;;;;;;11.70;99.90;12.20;98820.00;;;;345868;28;83427;-89
2022/04/07 00:52:30;;;;;;;;;;;11.70;99.90;12.10;98817.00;;;;346546;28;96529;-89
2022/04/07 00:52:54;;;;;;;;;;;11.60;99.90;12.00;98818.00;;;;348796;27;83321;-89
2022/04/07 00:53:06;;;;;;;;;;;11.70;99.90;11.90;98816.00;;;;343928;28;93843;-88
2022/04/07 00:53:18;;;;;;;;;;;11.60;99.90;12.00;98819.00;;;;347446;28;83464;-89
2022/04/07 00:53:30;;;;;;;;;;;11.70;99.90;12.10;98809.00;;;;343975;28;93446;-88
2022/04/07 00:53:42;;;;;;;;;;;11.60;99.90;12.00;98821.00;;;;344655;28;83527;-88
2022/04/07 00:53:53;;;;;;;;;;;11.60;99.90;12.00;98813.00;;;;343832;28;96253;-89
2022/04/07 00:54:06;;;;;;;;;;;11.60;99.90;12.10;98819.00;;;;345837;28;83364;-89
2022/04/07 00:54:18;;;;;;;;;;;11.60;99.90;12.00;98817.00;;;;342448;28;96821;-89
2022/04/07 00:54:30;;;;;;;;;;;11.60;99.90;12.10;98816.00;;;;346059;28;83399;-88
2022/04/07 00:54:42;;;;;;;;;;;11.60;99.90;12.10;98810.00;;;;345334;28;94368;-89
2022/04/07 00:54:54;;;;;;;;;;;11.60;99.90;12.20;98819.00;;;;347120;28;83515;-89
2022/04/07 00:55:06;;;;;;;;;;;11.70;99.90;12.20;98820.00;;;;345026;28;96988;-89
2022/04/07 00:55:18;;;;;;;;;;;11.70;99.90;12.20;98811.00;;;;348712;27;83277;-89
2022/04/07 00:55:30;;;;;;;;;;;11.70;99.90;12.10;98816.00;;;;348175;27;93368;-88
2022/04/07 00:55:42;;;;;;;;;;;11.70;99.90;12.00;98811.00;;;;347394;27;83428;-89
2022/04/07 00:55:59;;;;;;;;;;;11.70;99.90;12.00;98809.00;;;;345093;28;94024;-89
2022/04/07 00:56:11;;;;;;;;;;;11.70;99.90;12.00;98811.00;;;;347361;28;83420;-89
2022/04/07 00:56:26;;;;;;;;;;;11.60;99.90;12.00;98809.00;;;;346580;27;97229;-88
2022/04/07 00:56:39;;;;;;;;;;;11.70;99.90;11.90;98820.00;;;;350212;27;82682;-89
2022/04/07 00:56:51;;;;;;;;;;;11.60;99.90;12.00;98815.00;;;;346641;28;96755;-88
2022/04/07 00:57:04;;;;;;;;;;;11.60;99.90;12.00;98813.00;;;;345979;28;83349;-88
2022/04/07 00:57:15;;;;;;;;;;;11.60;99.90;12.00;98816.00;;;;346594;28;94886;-88
2022/04/07 00:57:27;;;;;;;;;;;11.60;99.90;12.00;98818.00;;;;347421;28;83364;-89
2022/04/07 00:57:39;;;;;;;;;;;11.60;99.90;12.00;98808.00;;;;346608;28;96137;-88
2022/04/07 00:57:51;;;;;;;;;;;11.60;99.90;11.90;98816.00;;;;346812;28;82666;-89
2022/04/07 00:58:03;;;;;;;;;;;11.60;99.90;12.00;98814.00;;;;343894;28;96419;-89
2022/04/07 00:58:14;;;;;;;;;;;11.60;99.90;12.00;98817.00;;;;345903;28;83348;-89
2022/04/07 00:58:29;;;;;;;;;;;11.60;99.90;12.00;98813.00;;;;346647;28;95291;-88
2022/04/07 00:58:41;;;;;;;;;;;11.60;99.90;11.90;98816.00;;;;347411;28;83479;-88
2022/04/07 00:58:53;;;;;;;;;;;11.60;99.90;11.90;98805.00;;;;347849;27;97022;-88
2022/04/07 00:59:05;;;;;;;;;;;11.60;99.90;12.00;98810.00;;;;348711;27;83325;-89
2022/04/07 00:59:17;;;;;;;;;;;11.60;99.90;11.90;98814.00;;;;345312;28;96190;-89
2022/04/07 00:59:29;;;;;;;;;;;11.60;99.90;11.80;98822.00;;;;346020;28;83461;-89
2022/04/07 00:59:41;;;;;;;;;;;11.60;99.90;11.80;98811.00;;;;345119;28;95397;-88
2022/04/07 00:59:53;;;;;;;;;;;11.60;99.90;11.90;98814.00;;;;344558;28;83489;-88
2022/04/07 01:00:06;;;;;;;;;;;11.60;99.90;11.90;98815.00;;;;343824;28;95404;-88
2022/04/07 01:00:18;;;;;;;;;;;11.60;99.90;12.00;98815.00;;;;344485;28;83466;-88
2022/04/07 01:00:30;;;;;;;;;;;11.60;99.90;11.90;98805.00;;;;343970;28;93859;-88
2022/04/07 01:00:42;;;;;;;;;;;11.60;99.90;12.10;98810.00;;;;345808;28;82492;-89
2022/04/07 01:00:55;;;;;;;;;;;11.60;99.90;12.10;98810.00;;;;344932;28;95610;-88
2022/04/07 01:01:08;;;;;;;;;;;11.60;99.90;12.10;98812.00;;;;345996;28;83413;-88